sensor_id;sensor_type;location;lat;lon;timestamp;P1;durP1;ratioP1;P2;durP2;ratioP2
37047;SDS011;23227;48.780;9.210;2022-12-13T00:00:32;28.35;;;11.68;;
37047;SDS011;23227;48.780;9.210;2022-12-13T00:03:35;30.70;;;11.45;;
37047;SDS011;23227;48.780;9.210;2022-12-13T00:06:38;28.55;;;11.70;;
37047;SDS011;23227;48.780;9.210;2022-12-13T00:09:41;27.42;;;12.35;;
37047;SDS011;23227;48.780;9.210;2022-12-13T00:12:45;33.25;;;13.90;;
37047;SDS011;23227;48.780;9.210;2022-12-13T00:15:54;27.77;;;10.93;;
37047;SDS011;23227;48.780;9.210;2022-12-13T00:18:58;28.73;;;12.60;;
37047;SDS011;23227;48.780;9.210;2022-12-13T00:22:01;32.10;;;12.33;;
37047;SDS011;23227;48.780;9.210;2022-12-13T00:25:05;25.65;;;11.90;;
37047;SDS011;23227;48.780;9.210;2022-12-13T00:28:09;27.42;;;11.20;;
37047;SDS011;23227;48.780;9.210;2022-12-13T00:31:12;33.47;;;13.15;;
37047;SDS011;23227;48.780;9.210;2022-12-13T00:34:35;32.00;;;12.65;;
37047;SDS011;23227;48.780;9.210;2022-12-13T00:37:38;37.83;;;13.88;;
37047;SDS011;23227;48.780;9.210;2022-12-13T00:40:41;35.17;;;13.32;;
37047;SDS011;23227;48.780;9.210;2022-12-13T00:43:45;30.95;;;12.40;;
37047;SDS011;23227;48.780;9.210;2022-12-13T00:46:48;30.13;;;12.20;;
37047;SDS011;23227;48.780;9.210;2022-12-13T00:52:55;27.30;;;11.43;;
37047;SDS011;23227;48.780;9.210;2022-12-13T00:55:58;29.58;;;12.40;;
37047;SDS011;23227;48.780;9.210;2022-12-13T00:59:02;28.00;;;12.27;;
37047;SDS011;23227;48.780;9.210;2022-12-13T01:02:05;32.97;;;12.57;;
37047;SDS011;23227;48.780;9.210;2022-12-13T01:05:08;31.35;;;12.25;;
37047;SDS011;23227;48.780;9.210;2022-12-13T01:08:11;34.63;;;13.20;;
37047;SDS011;23227;48.780;9.210;2022-12-13T01:11:14;27.13;;;11.43;;
37047;SDS011;23227;48.780;9.210;2022-12-13T01:14:19;29.95;;;12.13;;
37047;SDS011;23227;48.780;9.210;2022-12-13T01:17:22;30.42;;;12.15;;
37047;SDS011;23227;48.780;9.210;2022-12-13T01:20:25;26.90;;;11.02;;
37047;SDS011;23227;48.780;9.210;2022-12-13T01:23:28;28.05;;;11.55;;
37047;SDS011;23227;48.780;9.210;2022-12-13T01:26:31;31.50;;;12.68;;
37047;SDS011;23227;48.780;9.210;2022-12-13T01:29:36;31.37;;;11.93;;
37047;SDS011;23227;48.780;9.210;2022-12-13T01:32:38;36.15;;;12.63;;
37047;SDS011;23227;48.780;9.210;2022-12-13T01:35:41;34.58;;;12.25;;
37047;SDS011;23227;48.780;9.210;2022-12-13T01:38:44;29.02;;;12.02;;
37047;SDS011;23227;48.780;9.210;2022-12-13T01:41:48;31.27;;;13.32;;
37047;SDS011;23227;48.780;9.210;2022-12-13T01:45:03;31.50;;;12.02;;
37047;SDS011;23227;48.780;9.210;2022-12-13T01:48:08;33.10;;;13.23;;
37047;SDS011;23227;48.780;9.210;2022-12-13T01:51:14;27.60;;;12.13;;
37047;SDS011;23227;48.780;9.210;2022-12-13T01:54:20;30.33;;;11.35;;
37047;SDS011;23227;48.780;9.210;2022-12-13T01:57:34;33.33;;;11.93;;
37047;SDS011;23227;48.780;9.210;2022-12-13T02:00:47;32.67;;;13.43;;
37047;SDS011;23227;48.780;9.210;2022-12-13T02:03:51;32.38;;;13.00;;
37047;SDS011;23227;48.780;9.210;2022-12-13T02:06:54;32.97;;;12.85;;
37047;SDS011;23227;48.780;9.210;2022-12-13T02:09:58;34.85;;;12.55;;
37047;SDS011;23227;48.780;9.210;2022-12-13T02:13:02;25.98;;;11.15;;
37047;SDS011;23227;48.780;9.210;2022-12-13T02:16:07;35.45;;;12.57;;
37047;SDS011;23227;48.780;9.210;2022-12-13T02:19:33;34.40;;;13.50;;
37047;SDS011;23227;48.780;9.210;2022-12-13T02:22:47;32.28;;;12.82;;
37047;SDS011;23227;48.780;9.210;2022-12-13T02:26:10;26.20;;;11.02;;
37047;SDS011;23227;48.780;9.210;2022-12-13T02:36:29;30.40;;;12.18;;
37047;SDS011;23227;48.780;9.210;2022-12-13T02:39:37;27.83;;;11.90;;
37047;SDS011;23227;48.780;9.210;2022-12-13T02:42:43;32.90;;;13.50;;
37047;SDS011;23227;48.780;9.210;2022-12-13T02:45:51;34.17;;;12.93;;
37047;SDS011;23227;48.780;9.210;2022-12-13T02:48:58;33.08;;;12.50;;
37047;SDS011;23227;48.780;9.210;2022-12-13T02:52:01;35.05;;;12.63;;
37047;SDS011;23227;48.780;9.210;2022-12-13T02:55:05;36.17;;;13.00;;
37047;SDS011;23227;48.780;9.210;2022-12-13T02:58:10;29.58;;;12.45;;
37047;SDS011;23227;48.780;9.210;2022-12-13T03:01:28;37.05;;;13.55;;
37047;SDS011;23227;48.780;9.210;2022-12-13T03:04:45;39.63;;;14.48;;
37047;SDS011;23227;48.780;9.210;2022-12-13T03:08:09;33.30;;;13.23;;
37047;SDS011;23227;48.780;9.210;2022-12-13T03:11:21;27.02;;;11.55;;
37047;SDS011;23227;48.780;9.210;2022-12-13T03:14:25;41.03;;;13.35;;
37047;SDS011;23227;48.780;9.210;2022-12-13T03:17:32;27.50;;;11.18;;
37047;SDS011;23227;48.780;9.210;2022-12-13T03:20:43;31.92;;;12.88;;
37047;SDS011;23227;48.780;9.210;2022-12-13T03:23:47;29.08;;;11.93;;
37047;SDS011;23227;48.780;9.210;2022-12-13T03:26:50;35.80;;;13.15;;
37047;SDS011;23227;48.780;9.210;2022-12-13T03:29:53;35.50;;;13.25;;
37047;SDS011;23227;48.780;9.210;2022-12-13T03:32:56;26.88;;;11.02;;
37047;SDS011;23227;48.780;9.210;2022-12-13T03:36:00;27.45;;;10.23;;
37047;SDS011;23227;48.780;9.210;2022-12-13T03:39:04;25.88;;;10.90;;
37047;SDS011;23227;48.780;9.210;2022-12-13T03:42:07;30.85;;;12.68;;
37047;SDS011;23227;48.780;9.210;2022-12-13T03:45:10;32.90;;;12.82;;
37047;SDS011;23227;48.780;9.210;2022-12-13T03:51:24;28.42;;;10.63;;
37047;SDS011;23227;48.780;9.210;2022-12-13T03:54:27;29.73;;;12.25;;
37047;SDS011;23227;48.780;9.210;2022-12-13T03:57:30;29.58;;;11.60;;
37047;SDS011;23227;48.780;9.210;2022-12-13T04:00:33;35.92;;;12.43;;
37047;SDS011;23227;48.780;9.210;2022-12-13T04:03:36;33.00;;;13.27;;
37047;SDS011;23227;48.780;9.210;2022-12-13T04:06:42;29.60;;;11.15;;
37047;SDS011;23227;48.780;9.210;2022-12-13T04:09:45;29.77;;;11.43;;
37047;SDS011;23227;48.780;9.210;2022-12-13T04:12:48;31.08;;;11.25;;
37047;SDS011;23227;48.780;9.210;2022-12-13T04:16:08;32.47;;;11.20;;
37047;SDS011;23227;48.780;9.210;2022-12-13T04:19:11;30.90;;;12.57;;
37047;SDS011;23227;48.780;9.210;2022-12-13T04:22:15;27.77;;;10.50;;
37047;SDS011;23227;48.780;9.210;2022-12-13T04:25:25;25.25;;;10.95;;
37047;SDS011;23227;48.780;9.210;2022-12-13T04:28:28;27.83;;;11.07;;
37047;SDS011;23227;48.780;9.210;2022-12-13T04:31:30;26.55;;;10.70;;
37047;SDS011;23227;48.780;9.210;2022-12-13T04:34:34;30.60;;;10.05;;
37047;SDS011;23227;48.780;9.210;2022-12-13T04:37:39;30.20;;;11.48;;
37047;SDS011;23227;48.780;9.210;2022-12-13T04:40:43;26.13;;;10.07;;
37047;SDS011;23227;48.780;9.210;2022-12-13T04:43:49;27.10;;;11.50;;
37047;SDS011;23227;48.780;9.210;2022-12-13T04:46:52;25.63;;;10.35;;
37047;SDS011;23227;48.780;9.210;2022-12-13T04:50:01;28.70;;;11.93;;
37047;SDS011;23227;48.780;9.210;2022-12-13T04:53:05;31.65;;;10.57;;
37047;SDS011;23227;48.780;9.210;2022-12-13T04:56:08;34.78;;;11.05;;
37047;SDS011;23227;48.780;9.210;2022-12-13T04:59:11;28.67;;;11.13;;
37047;SDS011;23227;48.780;9.210;2022-12-13T05:02:15;25.70;;;10.32;;
37047;SDS011;23227;48.780;9.210;2022-12-13T05:05:24;35.83;;;12.15;;
37047;SDS011;23227;48.780;9.210;2022-12-13T05:08:28;27.90;;;10.82;;
37047;SDS011;23227;48.780;9.210;2022-12-13T05:11:31;26.40;;;10.90;;
37047;SDS011;23227;48.780;9.210;2022-12-13T05:14:36;26.63;;;10.48;;
37047;SDS011;23227;48.780;9.210;2022-12-13T05:17:38;26.88;;;10.80;;
37047;SDS011;23227;48.780;9.210;2022-12-13T05:20:41;31.48;;;11.55;;
37047;SDS011;23227;48.780;9.210;2022-12-13T05:23:45;23.52;;;9.13;;
37047;SDS011;23227;48.780;9.210;2022-12-13T05:26:48;23.00;;;9.25;;
37047;SDS011;23227;48.780;9.210;2022-12-13T05:29:51;23.95;;;9.82;;
37047;SDS011;23227;48.780;9.210;2022-12-13T05:33:04;26.67;;;9.23;;
37047;SDS011;23227;48.780;9.210;2022-12-13T05:36:08;26.17;;;10.80;;
37047;SDS011;23227;48.780;9.210;2022-12-13T05:39:12;27.02;;;11.27;;
37047;SDS011;23227;48.780;9.210;2022-12-13T05:42:29;25.95;;;10.13;;
37047;SDS011;23227;48.780;9.210;2022-12-13T05:45:32;25.10;;;11.15;;
37047;SDS011;23227;48.780;9.210;2022-12-13T05:48:35;27.98;;;11.32;;
37047;SDS011;23227;48.780;9.210;2022-12-13T05:51:37;25.38;;;11.05;;
37047;SDS011;23227;48.780;9.210;2022-12-13T05:54:41;24.15;;;10.05;;
37047;SDS011;23227;48.780;9.210;2022-12-13T05:57:44;29.13;;;12.25;;
37047;SDS011;23227;48.780;9.210;2022-12-13T06:00:51;25.02;;;11.63;;
37047;SDS011;23227;48.780;9.210;2022-12-13T06:03:53;29.73;;;11.65;;
37047;SDS011;23227;48.780;9.210;2022-12-13T06:06:56;25.42;;;9.73;;
37047;SDS011;23227;48.780;9.210;2022-12-13T06:10:00;25.42;;;10.75;;
37047;SDS011;23227;48.780;9.210;2022-12-13T06:13:11;26.30;;;11.05;;
37047;SDS011;23227;48.780;9.210;2022-12-13T06:16:32;26.17;;;10.32;;
37047;SDS011;23227;48.780;9.210;2022-12-13T06:19:35;29.00;;;10.50;;
37047;SDS011;23227;48.780;9.210;2022-12-13T06:22:38;30.10;;;10.82;;
37047;SDS011;23227;48.780;9.210;2022-12-13T06:25:42;23.75;;;9.80;;
37047;SDS011;23227;48.780;9.210;2022-12-13T06:28:51;25.20;;;10.15;;
37047;SDS011;23227;48.780;9.210;2022-12-13T06:31:55;29.45;;;10.10;;
37047;SDS011;23227;48.780;9.210;2022-12-13T06:35:03;26.65;;;10.15;;
37047;SDS011;23227;48.780;9.210;2022-12-13T06:38:26;33.72;;;11.43;;
37047;SDS011;23227;48.780;9.210;2022-12-13T06:41:33;26.52;;;10.20;;
37047;SDS011;23227;48.780;9.210;2022-12-13T06:44:37;28.60;;;10.80;;
37047;SDS011;23227;48.780;9.210;2022-12-13T06:47:40;24.80;;;11.15;;
37047;SDS011;23227;48.780;9.210;2022-12-13T06:50:42;31.23;;;11.40;;
37047;SDS011;23227;48.780;9.210;2022-12-13T06:53:45;31.58;;;12.93;;
37047;SDS011;23227;48.780;9.210;2022-12-13T06:56:50;21.38;;;9.73;;
37047;SDS011;23227;48.780;9.210;2022-12-13T06:59:53;26.80;;;10.88;;
37047;SDS011;23227;48.780;9.210;2022-12-13T07:02:56;31.60;;;10.85;;
37047;SDS011;23227;48.780;9.210;2022-12-13T07:05:59;33.28;;;11.40;;
37047;SDS011;23227;48.780;9.210;2022-12-13T07:09:02;24.48;;;9.35;;
37047;SDS011;23227;48.780;9.210;2022-12-13T07:12:07;25.20;;;9.80;;
37047;SDS011;23227;48.780;9.210;2022-12-13T07:15:10;24.20;;;9.38;;
37047;SDS011;23227;48.780;9.210;2022-12-13T07:18:12;30.65;;;11.55;;
37047;SDS011;23227;48.780;9.210;2022-12-13T07:21:15;27.83;;;10.68;;
37047;SDS011;23227;48.780;9.210;2022-12-13T07:24:22;33.13;;;10.63;;
37047;SDS011;23227;48.780;9.210;2022-12-13T07:27:26;29.85;;;10.73;;
37047;SDS011;23227;48.780;9.210;2022-12-13T07:30:30;25.63;;;10.10;;
37047;SDS011;23227;48.780;9.210;2022-12-13T07:33:41;29.27;;;11.27;;
37047;SDS011;23227;48.780;9.210;2022-12-13T07:36:44;28.30;;;10.48;;
37047;SDS011;23227;48.780;9.210;2022-12-13T07:39:47;23.65;;;9.35;;
37047;SDS011;23227;48.780;9.210;2022-12-13T07:42:52;27.77;;;9.55;;
37047;SDS011;23227;48.780;9.210;2022-12-13T07:45:56;26.05;;;10.63;;
37047;SDS011;23227;48.780;9.210;2022-12-13T07:49:00;27.05;;;11.30;;
37047;SDS011;23227;48.780;9.210;2022-12-13T07:52:02;31.40;;;10.93;;
37047;SDS011;23227;48.780;9.210;2022-12-13T07:55:06;31.10;;;12.35;;
37047;SDS011;23227;48.780;9.210;2022-12-13T07:58:13;27.17;;;11.63;;
37047;SDS011;23227;48.780;9.210;2022-12-13T08:01:16;26.35;;;9.73;;
37047;SDS011;23227;48.780;9.210;2022-12-13T08:04:20;26.93;;;10.57;;
37047;SDS011;23227;48.780;9.210;2022-12-13T08:07:22;25.63;;;11.05;;
37047;SDS011;23227;48.780;9.210;2022-12-13T08:10:25;26.50;;;9.90;;
37047;SDS011;23227;48.780;9.210;2022-12-13T08:13:29;24.73;;;10.57;;
37047;SDS011;23227;48.780;9.210;2022-12-13T08:16:33;31.17;;;11.35;;
37047;SDS011;23227;48.780;9.210;2022-12-13T08:19:36;26.25;;;10.32;;
37047;SDS011;23227;48.780;9.210;2022-12-13T08:22:39;26.58;;;11.40;;
37047;SDS011;23227;48.780;9.210;2022-12-13T08:25:50;29.05;;;11.60;;
37047;SDS011;23227;48.780;9.210;2022-12-13T08:28:55;27.00;;;11.18;;
37047;SDS011;23227;48.780;9.210;2022-12-13T08:31:58;33.60;;;11.75;;
37047;SDS011;23227;48.780;9.210;2022-12-13T08:35:02;38.53;;;11.82;;
37047;SDS011;23227;48.780;9.210;2022-12-13T08:38:05;28.73;;;10.82;;
37047;SDS011;23227;48.780;9.210;2022-12-13T08:41:08;28.48;;;10.27;;
37047;SDS011;23227;48.780;9.210;2022-12-13T08:44:13;27.85;;;11.57;;
37047;SDS011;23227;48.780;9.210;2022-12-13T08:47:16;32.58;;;12.57;;
37047;SDS011;23227;48.780;9.210;2022-12-13T08:50:25;26.02;;;10.98;;
37047;SDS011;23227;48.780;9.210;2022-12-13T08:53:28;31.15;;;12.27;;
37047;SDS011;23227;48.780;9.210;2022-12-13T08:56:41;28.75;;;11.25;;
37047;SDS011;23227;48.780;9.210;2022-12-13T08:59:45;32.40;;;12.23;;
37047;SDS011;23227;48.780;9.210;2022-12-13T09:02:48;34.53;;;12.90;;
37047;SDS011;23227;48.780;9.210;2022-12-13T09:05:51;31.52;;;11.68;;
37047;SDS011;23227;48.780;9.210;2022-12-13T09:08:54;30.35;;;11.73;;
37047;SDS011;23227;48.780;9.210;2022-12-13T09:11:57;26.13;;;11.43;;
37047;SDS011;23227;48.780;9.210;2022-12-13T09:15:01;29.42;;;10.40;;
37047;SDS011;23227;48.780;9.210;2022-12-13T09:18:22;22.05;;;9.15;;
37047;SDS011;23227;48.780;9.210;2022-12-13T09:21:36;26.33;;;10.57;;
37047;SDS011;23227;48.780;9.210;2022-12-13T09:24:43;25.33;;;11.27;;
37047;SDS011;23227;48.780;9.210;2022-12-13T09:27:50;23.67;;;9.25;;
37047;SDS011;23227;48.780;9.210;2022-12-13T09:30:55;24.05;;;9.43;;
37047;SDS011;23227;48.780;9.210;2022-12-13T09:33:58;22.38;;;8.85;;
37047;SDS011;23227;48.780;9.210;2022-12-13T09:37:00;28.63;;;9.15;;
37047;SDS011;23227;48.780;9.210;2022-12-13T09:40:04;22.42;;;9.05;;
37047;SDS011;23227;48.780;9.210;2022-12-13T09:43:26;22.95;;;9.23;;
37047;SDS011;23227;48.780;9.210;2022-12-13T09:46:45;23.77;;;9.65;;
37047;SDS011;23227;48.780;9.210;2022-12-13T09:49:48;21.38;;;9.02;;
37047;SDS011;23227;48.780;9.210;2022-12-13T09:52:53;24.75;;;9.18;;
37047;SDS011;23227;48.780;9.210;2022-12-13T09:56:00;24.33;;;8.23;;
37047;SDS011;23227;48.780;9.210;2022-12-13T09:59:11;26.80;;;9.60;;
37047;SDS011;23227;48.780;9.210;2022-12-13T10:02:20;25.70;;;9.47;;
37047;SDS011;23227;48.780;9.210;2022-12-13T10:05:27;23.00;;;8.48;;
37047;SDS011;23227;48.780;9.210;2022-12-13T10:08:39;22.83;;;8.87;;
37047;SDS011;23227;48.780;9.210;2022-12-13T10:11:47;22.88;;;9.90;;
37047;SDS011;23227;48.780;9.210;2022-12-13T10:14:53;20.70;;;8.20;;
37047;SDS011;23227;48.780;9.210;2022-12-13T10:18:00;23.35;;;9.35;;
37047;SDS011;23227;48.780;9.210;2022-12-13T10:21:07;18.23;;;8.05;;
37047;SDS011;23227;48.780;9.210;2022-12-13T10:24:13;26.10;;;8.77;;
37047;SDS011;23227;48.780;9.210;2022-12-13T10:27:35;23.70;;;8.77;;
37047;SDS011;23227;48.780;9.210;2022-12-13T10:30:41;17.48;;;7.20;;
37047;SDS011;23227;48.780;9.210;2022-12-13T10:33:51;29.43;;;9.80;;
37047;SDS011;23227;48.780;9.210;2022-12-13T10:36:55;18.77;;;7.72;;
37047;SDS011;23227;48.780;9.210;2022-12-13T10:40:00;20.20;;;8.90;;
37047;SDS011;23227;48.780;9.210;2022-12-13T10:43:04;19.92;;;7.65;;
37047;SDS011;23227;48.780;9.210;2022-12-13T10:46:16;35.80;;;7.93;;
37047;SDS011;23227;48.780;9.210;2022-12-13T10:49:28;17.07;;;7.87;;
37047;SDS011;23227;48.780;9.210;2022-12-13T10:52:37;23.43;;;7.63;;
37047;SDS011;23227;48.780;9.210;2022-12-13T10:55:43;20.90;;;7.73;;
37047;SDS011;23227;48.780;9.210;2022-12-13T10:58:46;20.73;;;7.73;;
37047;SDS011;23227;48.780;9.210;2022-12-13T11:01:52;20.77;;;7.93;;
37047;SDS011;23227;48.780;9.210;2022-12-13T11:04:57;16.30;;;7.28;;
37047;SDS011;23227;48.780;9.210;2022-12-13T11:08:14;21.13;;;8.43;;
37047;SDS011;23227;48.780;9.210;2022-12-13T11:11:18;22.17;;;7.33;;
37047;SDS011;23227;48.780;9.210;2022-12-13T11:14:31;22.17;;;8.03;;
37047;SDS011;23227;48.780;9.210;2022-12-13T11:17:45;24.30;;;7.37;;
37047;SDS011;23227;48.780;9.210;2022-12-13T11:20:52;23.67;;;6.90;;
37047;SDS011;23227;48.780;9.210;2022-12-13T11:23:58;18.90;;;7.77;;
37047;SDS011;23227;48.780;9.210;2022-12-13T11:27:05;20.50;;;6.80;;
37047;SDS011;23227;48.780;9.210;2022-12-13T11:30:18;17.85;;;7.03;;
37047;SDS011;23227;48.780;9.210;2022-12-13T11:33:25;19.10;;;7.20;;
37047;SDS011;23227;48.780;9.210;2022-12-13T11:36:33;16.50;;;7.03;;
37047;SDS011;23227;48.780;9.210;2022-12-13T11:39:42;19.20;;;7.07;;
37047;SDS011;23227;48.780;9.210;2022-12-13T11:42:49;20.33;;;7.40;;
37047;SDS011;23227;48.780;9.210;2022-12-13T11:45:55;19.03;;;7.90;;
37047;SDS011;23227;48.780;9.210;2022-12-13T11:49:00;17.03;;;7.17;;
37047;SDS011;23227;48.780;9.210;2022-12-13T11:52:10;19.73;;;7.20;;
37047;SDS011;23227;48.780;9.210;2022-12-13T11:55:15;19.13;;;7.23;;
37047;SDS011;23227;48.780;9.210;2022-12-13T11:58:20;19.57;;;7.30;;
37047;SDS011;23227;48.780;9.210;2022-12-13T12:01:48;17.00;;;7.40;;
37047;SDS011;23227;48.780;9.210;2022-12-13T12:04:53;19.70;;;7.03;;
37047;SDS011;23227;48.780;9.210;2022-12-13T12:08:04;20.70;;;7.00;;
37047;SDS011;23227;48.780;9.210;2022-12-13T12:11:31;16.70;;;7.13;;
37047;SDS011;23227;48.780;9.210;2022-12-13T12:14:38;16.80;;;7.50;;
37047;SDS011;23227;48.780;9.210;2022-12-13T12:17:45;22.27;;;7.80;;
37047;SDS011;23227;48.780;9.210;2022-12-13T12:20:52;19.83;;;6.77;;
37047;SDS011;23227;48.780;9.210;2022-12-13T12:24:10;22.17;;;8.63;;
37047;SDS011;23227;48.780;9.210;2022-12-13T12:27:20;23.73;;;7.70;;
37047;SDS011;23227;48.780;9.210;2022-12-13T12:30:31;19.63;;;7.63;;
37047;SDS011;23227;48.780;9.210;2022-12-13T12:33:41;23.87;;;8.17;;
37047;SDS011;23227;48.780;9.210;2022-12-13T12:36:53;25.73;;;8.53;;
37047;SDS011;23227;48.780;9.210;2022-12-13T12:40:10;19.83;;;8.17;;
37047;SDS011;23227;48.780;9.210;2022-12-13T12:43:30;24.17;;;8.37;;
37047;SDS011;23227;48.780;9.210;2022-12-13T12:46:38;16.90;;;6.73;;
37047;SDS011;23227;48.780;9.210;2022-12-13T12:50:16;19.80;;;7.93;;
37047;SDS011;23227;48.780;9.210;2022-12-13T12:53:29;20.73;;;7.67;;
37047;SDS011;23227;48.780;9.210;2022-12-13T12:56:41;20.03;;;7.30;;
37047;SDS011;23227;48.780;9.210;2022-12-13T12:59:53;18.13;;;8.27;;
37047;SDS011;23227;48.780;9.210;2022-12-13T13:03:06;20.57;;;7.60;;
37047;SDS011;23227;48.780;9.210;2022-12-13T13:06:23;19.00;;;8.20;;
37047;SDS011;23227;48.780;9.210;2022-12-13T13:09:28;21.27;;;7.83;;
37047;SDS011;23227;48.780;9.210;2022-12-13T13:12:33;22.53;;;7.83;;
37047;SDS011;23227;48.780;9.210;2022-12-13T13:15:53;23.00;;;9.00;;
37047;SDS011;23227;48.780;9.210;2022-12-13T13:18:58;22.83;;;7.93;;
37047;SDS011;23227;48.780;9.210;2022-12-13T13:22:02;18.67;;;7.67;;
37047;SDS011;23227;48.780;9.210;2022-12-13T13:25:27;18.40;;;6.75;;
37047;SDS011;23227;48.780;9.210;2022-12-13T13:28:33;26.73;;;6.83;;
37047;SDS011;23227;48.780;9.210;2022-12-13T13:31:47;19.67;;;6.67;;
37047;SDS011;23227;48.780;9.210;2022-12-13T13:38:51;18.50;;;6.93;;
37047;SDS011;23227;48.780;9.210;2022-12-13T13:42:08;15.57;;;6.65;;
37047;SDS011;23227;48.780;9.210;2022-12-13T13:45:20;19.77;;;6.83;;
37047;SDS011;23227;48.780;9.210;2022-12-13T13:48:30;13.10;;;6.00;;
37047;SDS011;23227;48.780;9.210;2022-12-13T13:52:03;13.10;;;6.17;;
37047;SDS011;23227;48.780;9.210;2022-12-13T13:55:39;13.88;;;6.32;;
37047;SDS011;23227;48.780;9.210;2022-12-13T14:02:52;18.03;;;6.40;;
37047;SDS011;23227;48.780;9.210;2022-12-13T14:10:34;16.53;;;6.60;;
37047;SDS011;23227;48.780;9.210;2022-12-13T14:13:50;15.73;;;6.63;;
37047;SDS011;23227;48.780;9.210;2022-12-13T14:17:29;18.10;;;7.33;;
37047;SDS011;23227;48.780;9.210;2022-12-13T14:20:59;11.70;;;5.27;;
37047;SDS011;23227;48.780;9.210;2022-12-13T14:24:12;19.17;;;6.00;;
37047;SDS011;23227;48.780;9.210;2022-12-13T14:27:21;16.47;;;5.57;;
37047;SDS011;23227;48.780;9.210;2022-12-13T14:30:30;17.53;;;6.67;;
37047;SDS011;23227;48.780;9.210;2022-12-13T14:33:35;13.88;;;5.93;;
37047;SDS011;23227;48.780;9.210;2022-12-13T14:36:37;18.87;;;6.23;;
37047;SDS011;23227;48.780;9.210;2022-12-13T14:39:45;17.67;;;6.40;;
37047;SDS011;23227;48.780;9.210;2022-12-13T14:42:49;16.50;;;7.07;;
37047;SDS011;23227;48.780;9.210;2022-12-13T14:45:54;16.30;;;6.03;;
37047;SDS011;23227;48.780;9.210;2022-12-13T14:48:59;14.37;;;6.03;;
37047;SDS011;23227;48.780;9.210;2022-12-13T14:52:13;22.97;;;6.97;;
37047;SDS011;23227;48.780;9.210;2022-12-13T14:55:28;17.47;;;5.63;;
37047;SDS011;23227;48.780;9.210;2022-12-13T14:58:32;23.67;;;6.00;;
37047;SDS011;23227;48.780;9.210;2022-12-13T15:01:37;16.73;;;5.40;;
37047;SDS011;23227;48.780;9.210;2022-12-13T15:04:42;16.38;;;6.20;;
37047;SDS011;23227;48.780;9.210;2022-12-13T15:07:45;17.17;;;6.27;;
37047;SDS011;23227;48.780;9.210;2022-12-13T15:10:48;14.93;;;5.93;;
37047;SDS011;23227;48.780;9.210;2022-12-13T15:13:52;12.10;;;5.27;;
37047;SDS011;23227;48.780;9.210;2022-12-13T15:16:55;11.60;;;5.40;;
37047;SDS011;23227;48.780;9.210;2022-12-13T15:20:00;12.07;;;5.47;;
37047;SDS011;23227;48.780;9.210;2022-12-13T15:23:11;16.83;;;6.03;;
37047;SDS011;23227;48.780;9.210;2022-12-13T15:26:16;12.67;;;5.63;;
37047;SDS011;23227;48.780;9.210;2022-12-13T15:29:30;17.70;;;5.60;;
37047;SDS011;23227;48.780;9.210;2022-12-13T15:35:38;15.07;;;5.67;;
37047;SDS011;23227;48.780;9.210;2022-12-13T15:38:42;15.63;;;6.03;;
37047;SDS011;23227;48.780;9.210;2022-12-13T15:41:52;18.90;;;6.33;;
37047;SDS011;23227;48.780;9.210;2022-12-13T15:44:57;18.57;;;7.27;;
37047;SDS011;23227;48.780;9.210;2022-12-13T15:48:02;19.73;;;6.93;;
37047;SDS011;23227;48.780;9.210;2022-12-13T15:51:08;18.88;;;5.78;;
37047;SDS011;23227;48.780;9.210;2022-12-13T15:54:17;15.30;;;6.37;;
37047;SDS011;23227;48.780;9.210;2022-12-13T15:57:22;15.60;;;6.50;;
37047;SDS011;23227;48.780;9.210;2022-12-13T16:00:27;14.90;;;5.70;;
37047;SDS011;23227;48.780;9.210;2022-12-13T16:03:34;15.53;;;5.97;;
37047;SDS011;23227;48.780;9.210;2022-12-13T16:06:43;17.83;;;5.60;;
37047;SDS011;23227;48.780;9.210;2022-12-13T16:09:50;18.17;;;5.87;;
37047;SDS011;23227;48.780;9.210;2022-12-13T16:12:55;19.13;;;6.17;;
37047;SDS011;23227;48.780;9.210;2022-12-13T16:16:19;18.70;;;6.18;;
37047;SDS011;23227;48.780;9.210;2022-12-13T16:19:27;18.70;;;5.83;;
37047;SDS011;23227;48.780;9.210;2022-12-13T16:22:31;17.03;;;6.50;;
37047;SDS011;23227;48.780;9.210;2022-12-13T16:25:34;14.37;;;6.80;;
37047;SDS011;23227;48.780;9.210;2022-12-13T16:28:37;16.03;;;6.63;;
37047;SDS011;23227;48.780;9.210;2022-12-13T16:31:40;12.48;;;5.75;;
37047;SDS011;23227;48.780;9.210;2022-12-13T16:34:43;20.33;;;6.30;;
37047;SDS011;23227;48.780;9.210;2022-12-13T16:37:48;22.92;;;7.15;;
37047;SDS011;23227;48.780;9.210;2022-12-13T16:40:59;16.43;;;5.90;;
37047;SDS011;23227;48.780;9.210;2022-12-13T16:44:14;18.03;;;6.37;;
37047;SDS011;23227;48.780;9.210;2022-12-13T16:47:22;19.70;;;6.17;;
37047;SDS011;23227;48.780;9.210;2022-12-13T16:53:59;15.07;;;6.10;;
37047;SDS011;23227;48.780;9.210;2022-12-13T16:57:02;18.43;;;6.37;;
37047;SDS011;23227;48.780;9.210;2022-12-13T17:00:06;16.48;;;6.63;;
37047;SDS011;23227;48.780;9.210;2022-12-13T17:03:10;15.47;;;5.97;;
37047;SDS011;23227;48.780;9.210;2022-12-13T17:06:15;17.20;;;6.78;;
37047;SDS011;23227;48.780;9.210;2022-12-13T17:09:23;19.80;;;7.43;;
37047;SDS011;23227;48.780;9.210;2022-12-13T17:12:26;17.33;;;6.60;;
37047;SDS011;23227;48.780;9.210;2022-12-13T17:15:29;15.50;;;6.50;;
37047;SDS011;23227;48.780;9.210;2022-12-13T17:18:31;16.83;;;6.50;;
37047;SDS011;23227;48.780;9.210;2022-12-13T17:21:34;16.23;;;7.17;;
37047;SDS011;23227;48.780;9.210;2022-12-13T17:24:38;18.13;;;7.47;;
37047;SDS011;23227;48.780;9.210;2022-12-13T17:27:41;13.43;;;6.47;;
37047;SDS011;23227;48.780;9.210;2022-12-13T17:30:45;14.07;;;7.45;;
37047;SDS011;23227;48.780;9.210;2022-12-13T17:33:55;17.20;;;6.90;;
37047;SDS011;23227;48.780;9.210;2022-12-13T17:36:58;19.30;;;7.22;;
37047;SDS011;23227;48.780;9.210;2022-12-13T17:40:09;20.13;;;7.87;;
37047;SDS011;23227;48.780;9.210;2022-12-13T17:43:12;16.40;;;6.33;;
37047;SDS011;23227;48.780;9.210;2022-12-13T17:46:33;17.03;;;6.17;;
37047;SDS011;23227;48.780;9.210;2022-12-13T17:49:36;15.82;;;6.10;;
37047;SDS011;23227;48.780;9.210;2022-12-13T17:52:39;14.50;;;5.50;;
37047;SDS011;23227;48.780;9.210;2022-12-13T17:55:43;15.68;;;5.72;;
37047;SDS011;23227;48.780;9.210;2022-12-13T17:58:46;17.93;;;6.93;;
37047;SDS011;23227;48.780;9.210;2022-12-13T18:01:50;13.30;;;5.85;;
37047;SDS011;23227;48.780;9.210;2022-12-13T18:04:53;16.95;;;6.60;;
37047;SDS011;23227;48.780;9.210;2022-12-13T18:07:56;17.57;;;5.67;;
37047;SDS011;23227;48.780;9.210;2022-12-13T18:11:00;15.50;;;5.82;;
37047;SDS011;23227;48.780;9.210;2022-12-13T18:14:24;14.23;;;5.87;;
37047;SDS011;23227;48.780;9.210;2022-12-13T18:17:27;14.65;;;6.13;;
37047;SDS011;23227;48.780;9.210;2022-12-13T18:20:50;13.33;;;5.90;;
37047;SDS011;23227;48.780;9.210;2022-12-13T18:23:53;13.48;;;6.28;;
37047;SDS011;23227;48.780;9.210;2022-12-13T18:26:57;14.38;;;6.13;;
37047;SDS011;23227;48.780;9.210;2022-12-13T18:30:00;16.03;;;6.03;;
37047;SDS011;23227;48.780;9.210;2022-12-13T18:33:03;17.07;;;6.60;;
37047;SDS011;23227;48.780;9.210;2022-12-13T18:36:07;17.20;;;6.82;;
37047;SDS011;23227;48.780;9.210;2022-12-13T18:39:11;20.77;;;7.23;;
37047;SDS011;23227;48.780;9.210;2022-12-13T18:42:15;17.50;;;6.70;;
37047;SDS011;23227;48.780;9.210;2022-12-13T18:45:18;19.07;;;6.67;;
37047;SDS011;23227;48.780;9.210;2022-12-13T18:48:21;16.02;;;6.47;;
37047;SDS011;23227;48.780;9.210;2022-12-13T18:51:24;16.00;;;7.38;;
37047;SDS011;23227;48.780;9.210;2022-12-13T18:54:28;19.88;;;7.25;;